Atoka, New Mexico
Current Conditions -  °F | °C
As of 11:53 PM on Friday 28 Nov 2014 (Local Time) from KCNM Reporting Station
Clear Clear  
Wind Chill: 37°   Ceiling: Unl
Heat Index: 37°   Visibility: 10mi
Dew Point: 25°   Wind: 3mph
Humidity: 62%   Direction: 290°WNW
Pressure: 29.97"   Gusts: NA
Location:  32.7449°N, 104.256°W
Report Text: KCNM 290653Z AUTO 29003KT 10SM CLR 03/M04 A2997 RMK AO2 SLP126 T00281039 402331022
Loading
Personal Weather Stations






























Interactive Weather Map New forecast layout! Learn more

10-Day Weather Forecast

Advertisements
Track Severe Weather on mobile